sensor_id;sensor_type;location;lat;lon;timestamp;temperature;humidity
54264;DHT22;40178;53.042;6.406;2023-11-21T00:00:05;9.30;99.90
54264;DHT22;40178;53.042;6.406;2023-11-21T00:02:36;9.30;99.90
54264;DHT22;40178;53.042;6.406;2023-11-21T00:05:04;9.20;99.90
54264;DHT22;40178;53.042;6.406;2023-11-21T00:07:29;9.30;99.90
54264;DHT22;40178;53.042;6.406;2023-11-21T00:09:55;9.10;99.90
54264;DHT22;40178;53.042;6.406;2023-11-21T00:12:21;9.20;99.90
54264;DHT22;40178;53.042;6.406;2023-11-21T00:14:47;9.20;99.90
54264;DHT22;40178;53.042;6.406;2023-11-21T00:17:12;9.10;99.90
54264;DHT22;40178;53.042;6.406;2023-11-21T00:19:38;9.10;99.90
54264;DHT22;40178;53.042;6.406;2023-11-21T00:22:04;9.20;99.90
54264;DHT22;40178;53.042;6.406;2023-11-21T00:24:29;9.30;99.90
54264;DHT22;40178;53.042;6.406;2023-11-21T00:26:55;9.30;99.90
54264;DHT22;40178;53.042;6.406;2023-11-21T00:29:20;9.30;99.90
54264;DHT22;40178;53.042;6.406;2023-11-21T00:31:46;9.30;99.90
54264;DHT22;40178;53.042;6.406;2023-11-21T00:34:12;9.30;99.90
54264;DHT22;40178;53.042;6.406;2023-11-21T00:36:38;9.20;99.90
54264;DHT22;40178;53.042;6.406;2023-11-21T00:39:04;9.40;99.90
54264;DHT22;40178;53.042;6.406;2023-11-21T00:41:31;9.40;99.90
54264;DHT22;40178;53.042;6.406;2023-11-21T00:43:57;9.30;99.90
54264;DHT22;40178;53.042;6.406;2023-11-21T00:46:24;9.30;99.90
54264;DHT22;40178;53.042;6.406;2023-11-21T00:48:52;9.30;99.90
54264;DHT22;40178;53.042;6.406;2023-11-21T00:51:19;9.40;99.90
54264;DHT22;40178;53.042;6.406;2023-11-21T00:53:45;9.30;99.90
54264;DHT22;40178;53.042;6.406;2023-11-21T00:56:12;9.40;99.90
54264;DHT22;40178;53.042;6.406;2023-11-21T00:58:39;9.30;99.90
54264;DHT22;40178;53.042;6.406;2023-11-21T01:01:04;9.40;99.90
54264;DHT22;40178;53.042;6.406;2023-11-21T01:03:30;9.40;99.90
54264;DHT22;40178;53.042;6.406;2023-11-21T01:05:56;9.30;99.90
54264;DHT22;40178;53.042;6.406;2023-11-21T01:08:21;9.30;99.90
54264;DHT22;40178;53.042;6.406;2023-11-21T01:10:49;9.30;99.90
54264;DHT22;40178;53.042;6.406;2023-11-21T01:13:15;9.30;99.90
54264;DHT22;40178;53.042;6.406;2023-11-21T01:15:40;9.50;99.90
54264;DHT22;40178;53.042;6.406;2023-11-21T01:18:07;9.30;99.90
54264;DHT22;40178;53.042;6.406;2023-11-21T01:20:34;9.40;99.90
54264;DHT22;40178;53.042;6.406;2023-11-21T01:22:59;9.40;99.90
54264;DHT22;40178;53.042;6.406;2023-11-21T01:25:25;9.40;99.90
54264;DHT22;40178;53.042;6.406;2023-11-21T01:27:51;9.30;99.90
54264;DHT22;40178;53.042;6.406;2023-11-21T01:30:17;9.40;99.90
54264;DHT22;40178;53.042;6.406;2023-11-21T01:32:43;9.30;99.90
54264;DHT22;40178;53.042;6.406;2023-11-21T01:35:09;9.40;99.90
54264;DHT22;40178;53.042;6.406;2023-11-21T01:37:36;9.50;99.90
54264;DHT22;40178;53.042;6.406;2023-11-21T01:40:02;9.50;99.90
54264;DHT22;40178;53.042;6.406;2023-11-21T01:42:28;9.30;99.90
54264;DHT22;40178;53.042;6.406;2023-11-21T01:44:54;9.40;99.90
54264;DHT22;40178;53.042;6.406;2023-11-21T01:47:20;9.30;99.90
54264;DHT22;40178;53.042;6.406;2023-11-21T01:49:46;9.30;99.90
54264;DHT22;40178;53.042;6.406;2023-11-21T01:52:13;9.50;99.90
54264;DHT22;40178;53.042;6.406;2023-11-21T01:54:39;9.40;99.90
54264;DHT22;40178;53.042;6.406;2023-11-21T01:57:05;9.50;99.90
54264;DHT22;40178;53.042;6.406;2023-11-21T01:59:36;9.50;99.90
54264;DHT22;40178;53.042;6.406;2023-11-21T02:02:03;9.50;99.90
54264;DHT22;40178;53.042;6.406;2023-11-21T02:04:33;9.50;99.90
54264;DHT22;40178;53.042;6.406;2023-11-21T02:06:59;9.50;99.90
54264;DHT22;40178;53.042;6.406;2023-11-21T02:09:28;9.50;99.90
54264;DHT22;40178;53.042;6.406;2023-11-21T02:11:58;9.60;99.90
54264;DHT22;40178;53.042;6.406;2023-11-21T02:14:25;9.50;99.90
54264;DHT22;40178;53.042;6.406;2023-11-21T02:16:52;9.60;99.90
54264;DHT22;40178;53.042;6.406;2023-11-21T02:19:18;9.50;99.90
54264;DHT22;40178;53.042;6.406;2023-11-21T02:21:46;9.60;99.90
54264;DHT22;40178;53.042;6.406;2023-11-21T02:24:13;9.50;99.90
54264;DHT22;40178;53.042;6.406;2023-11-21T02:26:39;9.50;99.90
54264;DHT22;40178;53.042;6.406;2023-11-21T02:29:04;9.50;99.90
54264;DHT22;40178;53.042;6.406;2023-11-21T02:31:30;9.60;99.90
54264;DHT22;40178;53.042;6.406;2023-11-21T02:33:58;9.50;99.90
54264;DHT22;40178;53.042;6.406;2023-11-21T02:36:24;9.50;99.90
54264;DHT22;40178;53.042;6.406;2023-11-21T02:38:49;9.50;99.90
54264;DHT22;40178;53.042;6.406;2023-11-21T02:41:15;9.60;99.90
54264;DHT22;40178;53.042;6.406;2023-11-21T02:43:41;9.60;99.90
54264;DHT22;40178;53.042;6.406;2023-11-21T02:46:08;9.60;99.90
54264;DHT22;40178;53.042;6.406;2023-11-21T02:48:34;9.60;99.90
54264;DHT22;40178;53.042;6.406;2023-11-21T02:50:59;9.50;99.90
54264;DHT22;40178;53.042;6.406;2023-11-21T02:53:25;9.50;99.90
54264;DHT22;40178;53.042;6.406;2023-11-21T02:55:51;9.50;99.90
54264;DHT22;40178;53.042;6.406;2023-11-21T02:58:17;9.60;99.90
54264;DHT22;40178;53.042;6.406;2023-11-21T03:00:43;9.60;99.90
54264;DHT22;40178;53.042;6.406;2023-11-21T03:03:08;9.60;99.90
54264;DHT22;40178;53.042;6.406;2023-11-21T03:05:34;9.50;99.90
54264;DHT22;40178;53.042;6.406;2023-11-21T03:08:01;9.70;99.90
54264;DHT22;40178;53.042;6.406;2023-11-21T03:10:26;9.70;99.90
54264;DHT22;40178;53.042;6.406;2023-11-21T03:12:52;9.70;99.90
54264;DHT22;40178;53.042;6.406;2023-11-21T03:15:18;9.60;99.90
54264;DHT22;40178;53.042;6.406;2023-11-21T03:17:44;9.70;99.90
54264;DHT22;40178;53.042;6.406;2023-11-21T03:20:10;9.60;99.90
54264;DHT22;40178;53.042;6.406;2023-11-21T03:22:36;9.70;99.90
54264;DHT22;40178;53.042;6.406;2023-11-21T03:25:03;9.60;99.90
54264;DHT22;40178;53.042;6.406;2023-11-21T03:27:30;9.70;99.90
54264;DHT22;40178;53.042;6.406;2023-11-21T03:29:56;9.60;99.90
54264;DHT22;40178;53.042;6.406;2023-11-21T03:32:21;9.60;99.90
54264;DHT22;40178;53.042;6.406;2023-11-21T03:34:58;9.70;99.90
54264;DHT22;40178;53.042;6.406;2023-11-21T03:37:24;9.70;99.90
54264;DHT22;40178;53.042;6.406;2023-11-21T03:39:50;9.70;99.90
54264;DHT22;40178;53.042;6.406;2023-11-21T03:42:16;9.60;99.90
54264;DHT22;40178;53.042;6.406;2023-11-21T03:44:42;9.70;99.90
54264;DHT22;40178;53.042;6.406;2023-11-21T03:47:08;9.80;99.90
54264;DHT22;40178;53.042;6.406;2023-11-21T03:49:33;9.70;99.90
54264;DHT22;40178;53.042;6.406;2023-11-21T03:51:59;9.60;99.90
54264;DHT22;40178;53.042;6.406;2023-11-21T03:54:24;9.60;99.90
54264;DHT22;40178;53.042;6.406;2023-11-21T03:56:50;9.60;99.90
54264;DHT22;40178;53.042;6.406;2023-11-21T03:59:16;9.80;99.90
54264;DHT22;40178;53.042;6.406;2023-11-21T04:01:41;9.80;99.90
54264;DHT22;40178;53.042;6.406;2023-11-21T04:04:07;9.70;99.90
54264;DHT22;40178;53.042;6.406;2023-11-21T04:06:32;9.70;99.90
54264;DHT22;40178;53.042;6.406;2023-11-21T04:08:58;9.80;99.90
54264;DHT22;40178;53.042;6.406;2023-11-21T04:11:24;9.70;99.90
54264;DHT22;40178;53.042;6.406;2023-11-21T04:13:50;9.70;99.90
54264;DHT22;40178;53.042;6.406;2023-11-21T04:16:15;9.70;99.90
54264;DHT22;40178;53.042;6.406;2023-11-21T04:18:41;9.60;99.90
54264;DHT22;40178;53.042;6.406;2023-11-21T04:21:07;9.60;99.90
54264;DHT22;40178;53.042;6.406;2023-11-21T04:23:34;9.50;99.90
54264;DHT22;40178;53.042;6.406;2023-11-21T04:26:00;9.60;99.90
54264;DHT22;40178;53.042;6.406;2023-11-21T04:28:27;9.50;99.90
54264;DHT22;40178;53.042;6.406;2023-11-21T04:30:53;9.60;99.90
54264;DHT22;40178;53.042;6.406;2023-11-21T04:33:18;9.60;99.90
54264;DHT22;40178;53.042;6.406;2023-11-21T04:35:44;9.60;99.90
54264;DHT22;40178;53.042;6.406;2023-11-21T04:38:10;9.70;99.90
54264;DHT22;40178;53.042;6.406;2023-11-21T04:40:35;9.60;99.90
54264;DHT22;40178;53.042;6.406;2023-11-21T04:43:01;9.50;99.90
54264;DHT22;40178;53.042;6.406;2023-11-21T04:45:27;9.70;99.90
54264;DHT22;40178;53.042;6.406;2023-11-21T04:47:52;9.60;99.90
54264;DHT22;40178;53.042;6.406;2023-11-21T04:50:18;9.60;99.90
54264;DHT22;40178;53.042;6.406;2023-11-21T04:52:44;9.70;99.90
54264;DHT22;40178;53.042;6.406;2023-11-21T04:55:10;9.60;99.90
54264;DHT22;40178;53.042;6.406;2023-11-21T04:57:39;9.60;99.90
54264;DHT22;40178;53.042;6.406;2023-11-21T05:00:09;9.70;99.90
54264;DHT22;40178;53.042;6.406;2023-11-21T05:02:35;9.70;99.90
54264;DHT22;40178;53.042;6.406;2023-11-21T05:05:01;9.60;99.90
54264;DHT22;40178;53.042;6.406;2023-11-21T05:07:27;9.60;99.90
54264;DHT22;40178;53.042;6.406;2023-11-21T05:09:55;9.70;99.90
54264;DHT22;40178;53.042;6.406;2023-11-21T05:12:24;9.70;99.90
54264;DHT22;40178;53.042;6.406;2023-11-21T05:14:52;9.70;99.90
54264;DHT22;40178;53.042;6.406;2023-11-21T05:17:18;10.00;99.90
54264;DHT22;40178;53.042;6.406;2023-11-21T05:19:44;9.70;99.90
54264;DHT22;40178;53.042;6.406;2023-11-21T05:22:10;9.60;99.90
54264;DHT22;40178;53.042;6.406;2023-11-21T05:24:37;9.80;99.90
54264;DHT22;40178;53.042;6.406;2023-11-21T05:27:04;9.70;99.90
54264;DHT22;40178;53.042;6.406;2023-11-21T05:29:30;9.60;99.90
54264;DHT22;40178;53.042;6.406;2023-11-21T05:31:55;9.70;99.90
54264;DHT22;40178;53.042;6.406;2023-11-21T05:34:21;9.60;99.90
54264;DHT22;40178;53.042;6.406;2023-11-21T05:36:50;9.80;99.90
54264;DHT22;40178;53.042;6.406;2023-11-21T05:39:15;9.70;99.90
54264;DHT22;40178;53.042;6.406;2023-11-21T05:41:43;9.70;99.90
54264;DHT22;40178;53.042;6.406;2023-11-21T05:44:08;9.70;99.90
54264;DHT22;40178;53.042;6.406;2023-11-21T05:46:34;9.60;99.90
54264;DHT22;40178;53.042;6.406;2023-11-21T05:49:00;9.80;99.90
54264;DHT22;40178;53.042;6.406;2023-11-21T05:51:25;9.70;99.90
54264;DHT22;40178;53.042;6.406;2023-11-21T05:53:51;9.80;99.90
54264;DHT22;40178;53.042;6.406;2023-11-21T05:56:17;9.80;99.90
54264;DHT22;40178;53.042;6.406;2023-11-21T05:58:43;9.80;99.90
54264;DHT22;40178;53.042;6.406;2023-11-21T06:01:09;9.80;99.90
54264;DHT22;40178;53.042;6.406;2023-11-21T06:03:38;9.80;99.90
54264;DHT22;40178;53.042;6.406;2023-11-21T06:06:04;9.80;99.90
54264;DHT22;40178;53.042;6.406;2023-11-21T06:08:30;9.70;99.90
54264;DHT22;40178;53.042;6.406;2023-11-21T06:10:55;9.70;99.90
54264;DHT22;40178;53.042;6.406;2023-11-21T06:13:21;9.70;99.90
54264;DHT22;40178;53.042;6.406;2023-11-21T06:15:50;9.70;99.90
54264;DHT22;40178;53.042;6.406;2023-11-21T06:18:16;9.60;99.90
54264;DHT22;40178;53.042;6.406;2023-11-21T06:20:47;9.80;99.90
54264;DHT22;40178;53.042;6.406;2023-11-21T06:23:13;9.60;99.90
54264;DHT22;40178;53.042;6.406;2023-11-21T06:25:39;9.70;99.90
54264;DHT22;40178;53.042;6.406;2023-11-21T06:28:05;9.70;99.90
54264;DHT22;40178;53.042;6.406;2023-11-21T06:30:31;9.70;99.90
54264;DHT22;40178;53.042;6.406;2023-11-21T06:32:57;9.60;99.90
54264;DHT22;40178;53.042;6.406;2023-11-21T06:35:23;9.60;99.90
54264;DHT22;40178;53.042;6.406;2023-11-21T06:37:48;9.70;99.90
54264;DHT22;40178;53.042;6.406;2023-11-21T06:40:14;9.70;99.90
54264;DHT22;40178;53.042;6.406;2023-11-21T06:42:40;9.60;99.90
54264;DHT22;40178;53.042;6.406;2023-11-21T06:45:07;9.60;99.90
54264;DHT22;40178;53.042;6.406;2023-11-21T06:47:33;9.60;99.90
54264;DHT22;40178;53.042;6.406;2023-11-21T06:49:59;9.70;99.90
54264;DHT22;40178;53.042;6.406;2023-11-21T06:52:25;9.60;99.90
54264;DHT22;40178;53.042;6.406;2023-11-21T06:54:51;9.50;99.90
54264;DHT22;40178;53.042;6.406;2023-11-21T06:57:17;9.50;99.90
54264;DHT22;40178;53.042;6.406;2023-11-21T06:59:43;9.60;99.90
54264;DHT22;40178;53.042;6.406;2023-11-21T07:02:08;9.50;99.90
54264;DHT22;40178;53.042;6.406;2023-11-21T07:04:38;9.60;99.90
54264;DHT22;40178;53.042;6.406;2023-11-21T07:07:04;9.50;99.90
54264;DHT22;40178;53.042;6.406;2023-11-21T07:09:30;9.70;99.90
54264;DHT22;40178;53.042;6.406;2023-11-21T07:11:56;9.50;99.90
54264;DHT22;40178;53.042;6.406;2023-11-21T07:14:22;9.60;99.90
54264;DHT22;40178;53.042;6.406;2023-11-21T07:16:48;9.70;99.90
54264;DHT22;40178;53.042;6.406;2023-11-21T07:19:14;9.70;99.90
54264;DHT22;40178;53.042;6.406;2023-11-21T07:21:40;9.70;99.90
54264;DHT22;40178;53.042;6.406;2023-11-21T07:24:06;9.60;99.90
54264;DHT22;40178;53.042;6.406;2023-11-21T07:26:33;9.70;99.90
54264;DHT22;40178;53.042;6.406;2023-11-21T07:28:59;9.60;99.90
54264;DHT22;40178;53.042;6.406;2023-11-21T07:31:25;9.70;99.90
54264;DHT22;40178;53.042;6.406;2023-11-21T07:33:51;9.60;99.90
54264;DHT22;40178;53.042;6.406;2023-11-21T07:36:18;9.80;99.90
54264;DHT22;40178;53.042;6.406;2023-11-21T07:38:44;9.50;99.90
54264;DHT22;40178;53.042;6.406;2023-11-21T07:41:11;9.50;99.90
54264;DHT22;40178;53.042;6.406;2023-11-21T07:43:37;9.50;99.90
54264;DHT22;40178;53.042;6.406;2023-11-21T07:46:03;9.60;99.90
54264;DHT22;40178;53.042;6.406;2023-11-21T07:48:32;9.60;99.90
54264;DHT22;40178;53.042;6.406;2023-11-21T07:50:58;9.50;99.90
54264;DHT22;40178;53.042;6.406;2023-11-21T07:53:24;9.70;99.90
54264;DHT22;40178;53.042;6.406;2023-11-21T07:55:57;9.50;99.90
54264;DHT22;40178;53.042;6.406;2023-11-21T07:58:23;9.50;99.90
54264;DHT22;40178;53.042;6.406;2023-11-21T08:00:50;9.60;99.90
54264;DHT22;40178;53.042;6.406;2023-11-21T08:03:16;9.50;99.90
54264;DHT22;40178;53.042;6.406;2023-11-21T08:05:42;9.40;99.90
54264;DHT22;40178;53.042;6.406;2023-11-21T08:08:08;9.50;99.90
54264;DHT22;40178;53.042;6.406;2023-11-21T08:10:34;9.40;99.90
54264;DHT22;40178;53.042;6.406;2023-11-21T08:13:01;9.50;99.90
54264;DHT22;40178;53.042;6.406;2023-11-21T08:15:27;9.50;99.90
54264;DHT22;40178;53.042;6.406;2023-11-21T08:17:53;9.50;99.90
54264;DHT22;40178;53.042;6.406;2023-11-21T08:20:19;9.50;99.90
54264;DHT22;40178;53.042;6.406;2023-11-21T08:22:44;9.40;99.90
54264;DHT22;40178;53.042;6.406;2023-11-21T08:25:10;9.40;99.90
54264;DHT22;40178;53.042;6.406;2023-11-21T08:27:36;9.40;99.90
54264;DHT22;40178;53.042;6.406;2023-11-21T08:30:05;9.30;99.90
54264;DHT22;40178;53.042;6.406;2023-11-21T08:32:32;9.40;99.90
54264;DHT22;40178;53.042;6.406;2023-11-21T08:35:01;9.30;99.90
54264;DHT22;40178;53.042;6.406;2023-11-21T08:37:27;9.20;99.90
54264;DHT22;40178;53.042;6.406;2023-11-21T08:39:53;9.30;99.90
54264;DHT22;40178;53.042;6.406;2023-11-21T08:42:19;9.20;99.90
54264;DHT22;40178;53.042;6.406;2023-11-21T08:44:45;9.20;99.90
54264;DHT22;40178;53.042;6.406;2023-11-21T08:47:11;9.10;99.90
54264;DHT22;40178;53.042;6.406;2023-11-21T08:49:37;9.10;99.90
54264;DHT22;40178;53.042;6.406;2023-11-21T08:52:03;9.10;99.90
54264;DHT22;40178;53.042;6.406;2023-11-21T08:54:30;9.00;99.90
54264;DHT22;40178;53.042;6.406;2023-11-21T08:56:56;9.00;99.90
54264;DHT22;40178;53.042;6.406;2023-11-21T08:59:24;8.90;99.90
54264;DHT22;40178;53.042;6.406;2023-11-21T09:01:50;8.90;99.90
54264;DHT22;40178;53.042;6.406;2023-11-21T09:04:16;9.60;99.90
54264;DHT22;40178;53.042;6.406;2023-11-21T09:06:42;9.00;99.90
54264;DHT22;40178;53.042;6.406;2023-11-21T09:09:07;9.00;99.90
54264;DHT22;40178;53.042;6.406;2023-11-21T09:11:35;9.00;99.90
54264;DHT22;40178;53.042;6.406;2023-11-21T09:14:01;9.00;99.90
54264;DHT22;40178;53.042;6.406;2023-11-21T09:16:29;9.00;99.90
54264;DHT22;40178;53.042;6.406;2023-11-21T09:18:54;9.00;99.90
54264;DHT22;40178;53.042;6.406;2023-11-21T09:21:20;9.00;99.90
54264;DHT22;40178;53.042;6.406;2023-11-21T09:23:46;9.00;99.90
54264;DHT22;40178;53.042;6.406;2023-11-21T09:26:12;9.00;99.90
54264;DHT22;40178;53.042;6.406;2023-11-21T09:28:37;9.00;99.90
54264;DHT22;40178;53.042;6.406;2023-11-21T09:31:06;8.90;99.90
54264;DHT22;40178;53.042;6.406;2023-11-21T09:33:35;8.90;99.90
54264;DHT22;40178;53.042;6.406;2023-11-21T09:36:00;8.90;99.90
54264;DHT22;40178;53.042;6.406;2023-11-21T09:38:26;9.00;99.90
54264;DHT22;40178;53.042;6.406;2023-11-21T09:40:54;9.00;99.90
54264;DHT22;40178;53.042;6.406;2023-11-21T09:43:20;9.00;99.90
54264;DHT22;40178;53.042;6.406;2023-11-21T09:45:51;9.00;99.90
54264;DHT22;40178;53.042;6.406;2023-11-21T09:48:20;9.00;99.90
54264;DHT22;40178;53.042;6.406;2023-11-21T09:50:47;9.00;99.90
54264;DHT22;40178;53.042;6.406;2023-11-21T09:53:21;9.00;99.90
54264;DHT22;40178;53.042;6.406;2023-11-21T09:55:51;9.10;99.90
54264;DHT22;40178;53.042;6.406;2023-11-21T09:58:18;9.00;99.90
54264;DHT22;40178;53.042;6.406;2023-11-21T10:00:46;9.10;99.90
54264;DHT22;40178;53.042;6.406;2023-11-21T10:03:12;9.00;99.90
54264;DHT22;40178;53.042;6.406;2023-11-21T10:05:39;9.00;99.90
54264;DHT22;40178;53.042;6.406;2023-11-21T10:08:09;9.00;99.90
54264;DHT22;40178;53.042;6.406;2023-11-21T10:10:36;9.00;99.90
54264;DHT22;40178;53.042;6.406;2023-11-21T10:13:05;9.00;99.90
54264;DHT22;40178;53.042;6.406;2023-11-21T10:15:35;9.00;99.90
54264;DHT22;40178;53.042;6.406;2023-11-21T10:18:06;9.00;99.90
54264;DHT22;40178;53.042;6.406;2023-11-21T10:20:33;9.10;99.90
54264;DHT22;40178;53.042;6.406;2023-11-21T10:23:00;9.10;99.90
54264;DHT22;40178;53.042;6.406;2023-11-21T10:25:27;9.10;99.90
54264;DHT22;40178;53.042;6.406;2023-11-21T10:27:58;9.00;99.90
54264;DHT22;40178;53.042;6.406;2023-11-21T10:30:37;8.90;99.90
54264;DHT22;40178;53.042;6.406;2023-11-21T10:33:04;9.00;99.90
54264;DHT22;40178;53.042;6.406;2023-11-21T10:35:46;8.90;99.90
54264;DHT22;40178;53.042;6.406;2023-11-21T10:38:19;8.90;99.90
54264;DHT22;40178;53.042;6.406;2023-11-21T10:40:48;8.80;99.90
54264;DHT22;40178;53.042;6.406;2023-11-21T10:43:15;8.80;99.90
54264;DHT22;40178;53.042;6.406;2023-11-21T10:45:41;8.80;99.90
54264;DHT22;40178;53.042;6.406;2023-11-21T10:48:08;8.70;99.90
54264;DHT22;40178;53.042;6.406;2023-11-21T10:50:36;8.70;99.90
54264;DHT22;40178;53.042;6.406;2023-11-21T10:53:03;8.70;99.90
54264;DHT22;40178;53.042;6.406;2023-11-21T10:55:30;8.80;99.90
54264;DHT22;40178;53.042;6.406;2023-11-21T10:57:59;8.80;99.90
54264;DHT22;40178;53.042;6.406;2023-11-21T11:00:26;8.90;99.90
54264;DHT22;40178;53.042;6.406;2023-11-21T11:02:53;8.90;99.90
54264;DHT22;40178;53.042;6.406;2023-11-21T11:05:23;9.00;99.90
54264;DHT22;40178;53.042;6.406;2023-11-21T11:08:12;9.00;99.90
54264;DHT22;40178;53.042;6.406;2023-11-21T11:10:45;9.00;99.90
54264;DHT22;40178;53.042;6.406;2023-11-21T11:13:13;8.90;99.90
54264;DHT22;40178;53.042;6.406;2023-11-21T11:15:40;8.90;99.90
54264;DHT22;40178;53.042;6.406;2023-11-21T11:18:07;8.90;99.90
54264;DHT22;40178;53.042;6.406;2023-11-21T11:20:36;8.80;99.90
54264;DHT22;40178;53.042;6.406;2023-11-21T11:23:35;8.80;99.90
54264;DHT22;40178;53.042;6.406;2023-11-21T11:31:05;8.70;99.90
54264;DHT22;40178;53.042;6.406;2023-11-21T11:34:12;8.70;99.90
54264;DHT22;40178;53.042;6.406;2023-11-21T11:36:46;8.70;99.90
54264;DHT22;40178;53.042;6.406;2023-11-21T11:39:39;8.70;99.90
54264;DHT22;40178;53.042;6.406;2023-11-21T11:42:13;8.70;99.90
54264;DHT22;40178;53.042;6.406;2023-11-21T11:52:53;8.70;99.90
54264;DHT22;40178;53.042;6.406;2023-11-21T11:55:21;8.70;99.90
54264;DHT22;40178;53.042;6.406;2023-11-21T11:57:51;8.70;99.90
54264;DHT22;40178;53.042;6.406;2023-11-21T12:02:57;8.70;99.90
54264;DHT22;40178;53.042;6.406;2023-11-21T12:05:24;8.80;99.90
54264;DHT22;40178;53.042;6.406;2023-11-21T12:07:57;8.80;99.90
54264;DHT22;40178;53.042;6.406;2023-11-21T12:10:34;8.80;99.90
54264;DHT22;40178;53.042;6.406;2023-11-21T12:13:01;8.70;99.90
54264;DHT22;40178;53.042;6.406;2023-11-21T12:15:27;8.70;99.90
54264;DHT22;40178;53.042;6.406;2023-11-21T12:17:58;8.70;99.90
54264;DHT22;40178;53.042;6.406;2023-11-21T12:20:25;8.70;99.90
54264;DHT22;40178;53.042;6.406;2023-11-21T12:22:56;8.60;99.90
54264;DHT22;40178;53.042;6.406;2023-11-21T12:25:26;8.60;99.90
54264;DHT22;40178;53.042;6.406;2023-11-21T12:27:58;8.50;99.90
54264;DHT22;40178;53.042;6.406;2023-11-21T12:30:28;8.50;99.90
54264;DHT22;40178;53.042;6.406;2023-11-21T12:32:57;8.50;99.90
54264;DHT22;40178;53.042;6.406;2023-11-21T12:35:27;8.50;99.90
54264;DHT22;40178;53.042;6.406;2023-11-21T12:37:54;8.50;99.90
54264;DHT22;40178;53.042;6.406;2023-11-21T12:40:21;8.50;99.90
54264;DHT22;40178;53.042;6.406;2023-11-21T12:42:55;8.50;99.90
54264;DHT22;40178;53.042;6.406;2023-11-21T12:45:23;8.50;99.90
54264;DHT22;40178;53.042;6.406;2023-11-21T12:47:59;8.60;99.90
54264;DHT22;40178;53.042;6.406;2023-11-21T12:50:29;8.60;99.90
54264;DHT22;40178;53.042;6.406;2023-11-21T12:53:00;8.60;99.90
54264;DHT22;40178;53.042;6.406;2023-11-21T12:55:33;8.60;99.90
54264;DHT22;40178;53.042;6.406;2023-11-21T12:58:04;8.60;99.90
54264;DHT22;40178;53.042;6.406;2023-11-21T13:00:37;8.60;99.90
54264;DHT22;40178;53.042;6.406;2023-11-21T13:03:04;8.50;99.90
54264;DHT22;40178;53.042;6.406;2023-11-21T13:05:36;8.60;99.90
54264;DHT22;40178;53.042;6.406;2023-11-21T13:08:05;8.60;99.90
54264;DHT22;40178;53.042;6.406;2023-11-21T13:10:34;8.60;99.90
54264;DHT22;40178;53.042;6.406;2023-11-21T13:13:02;8.60;99.90
54264;DHT22;40178;53.042;6.406;2023-11-21T13:15:31;8.50;99.90
54264;DHT22;40178;53.042;6.406;2023-11-21T13:17:58;8.50;99.90
54264;DHT22;40178;53.042;6.406;2023-11-21T13:20:25;8.50;99.90
54264;DHT22;40178;53.042;6.406;2023-11-21T13:22:52;8.50;99.90
54264;DHT22;40178;53.042;6.406;2023-11-21T13:25:29;8.50;99.90
54264;DHT22;40178;53.042;6.406;2023-11-21T13:27:57;8.30;99.90
54264;DHT22;40178;53.042;6.406;2023-11-21T13:30:24;8.30;99.90
54264;DHT22;40178;53.042;6.406;2023-11-21T13:32:53;8.30;99.90
54264;DHT22;40178;53.042;6.406;2023-11-21T13:35:23;8.20;99.90
54264;DHT22;40178;53.042;6.406;2023-11-21T13:37:57;8.20;99.90
54264;DHT22;40178;53.042;6.406;2023-11-21T13:40:26;8.20;99.90
54264;DHT22;40178;53.042;6.406;2023-11-21T13:42:55;8.20;99.90
54264;DHT22;40178;53.042;6.406;2023-11-21T13:45:27;8.30;99.90
54264;DHT22;40178;53.042;6.406;2023-11-21T13:47:54;8.30;99.90
54264;DHT22;40178;53.042;6.406;2023-11-21T13:50:26;8.40;99.90
54264;DHT22;40178;53.042;6.406;2023-11-21T13:52:59;8.50;99.90
54264;DHT22;40178;53.042;6.406;2023-11-21T13:55:29;8.60;99.90
54264;DHT22;40178;53.042;6.406;2023-11-21T13:57:55;8.70;99.90
54264;DHT22;40178;53.042;6.406;2023-11-21T14:00:20;8.70;99.90
54264;DHT22;40178;53.042;6.406;2023-11-21T14:03:09;8.70;99.90
54264;DHT22;40178;53.042;6.406;2023-11-21T14:05:43;8.70;99.90
54264;DHT22;40178;53.042;6.406;2023-11-21T14:08:10;8.80;99.90
54264;DHT22;40178;53.042;6.406;2023-11-21T14:10:37;8.70;99.90
54264;DHT22;40178;53.042;6.406;2023-11-21T14:13:09;8.80;99.90
54264;DHT22;40178;53.042;6.406;2023-11-21T14:15:39;8.80;99.90
54264;DHT22;40178;53.042;6.406;2023-11-21T14:18:08;8.70;99.90
54264;DHT22;40178;53.042;6.406;2023-11-21T14:20:38;8.70;99.90
54264;DHT22;40178;53.042;6.406;2023-11-21T14:23:05;8.70;99.90
54264;DHT22;40178;53.042;6.406;2023-11-21T14:25:31;8.60;99.90
54264;DHT22;40178;53.042;6.406;2023-11-21T14:27:58;8.60;99.90
54264;DHT22;40178;53.042;6.406;2023-11-21T14:30:24;8.60;99.90
54264;DHT22;40178;53.042;6.406;2023-11-21T14:32:50;8.60;99.90
54264;DHT22;40178;53.042;6.406;2023-11-21T14:35:16;8.50;99.90
54264;DHT22;40178;53.042;6.406;2023-11-21T14:37:43;8.40;99.90
54264;DHT22;40178;53.042;6.406;2023-11-21T14:40:09;8.40;99.90
54264;DHT22;40178;53.042;6.406;2023-11-21T14:42:35;8.40;99.90
54264;DHT22;40178;53.042;6.406;2023-11-21T14:45:05;8.40;99.90
54264;DHT22;40178;53.042;6.406;2023-11-21T14:47:33;8.40;99.90
54264;DHT22;40178;53.042;6.406;2023-11-21T14:50:03;8.30;99.90
54264;DHT22;40178;53.042;6.406;2023-11-21T14:52:48;8.40;99.90
54264;DHT22;40178;53.042;6.406;2023-11-21T14:55:24;8.30;99.90
54264;DHT22;40178;53.042;6.406;2023-11-21T14:58:09;8.30;99.90
54264;DHT22;40178;53.042;6.406;2023-11-21T15:00:39;8.20;99.90
54264;DHT22;40178;53.042;6.406;2023-11-21T15:03:11;8.30;99.90
54264;DHT22;40178;53.042;6.406;2023-11-21T15:05:47;8.20;99.90
54264;DHT22;40178;53.042;6.406;2023-11-21T15:08:14;8.20;99.90
54264;DHT22;40178;53.042;6.406;2023-11-21T15:10:49;8.20;99.90
54264;DHT22;40178;53.042;6.406;2023-11-21T15:13:19;8.10;99.90
54264;DHT22;40178;53.042;6.406;2023-11-21T15:15:45;8.00;99.90
54264;DHT22;40178;53.042;6.406;2023-11-21T15:18:11;7.90;99.90
54264;DHT22;40178;53.042;6.406;2023-11-21T15:20:41;7.90;99.90
54264;DHT22;40178;53.042;6.406;2023-11-21T15:23:07;7.80;99.90
54264;DHT22;40178;53.042;6.406;2023-11-21T15:25:34;7.80;99.90
54264;DHT22;40178;53.042;6.406;2023-11-21T15:28:01;7.80;99.90
54264;DHT22;40178;53.042;6.406;2023-11-21T15:30:28;7.80;99.90
54264;DHT22;40178;53.042;6.406;2023-11-21T15:32:59;7.80;99.90
54264;DHT22;40178;53.042;6.406;2023-11-21T15:35:25;7.80;99.90
54264;DHT22;40178;53.042;6.406;2023-11-21T15:37:53;7.80;99.90
54264;DHT22;40178;53.042;6.406;2023-11-21T15:40:23;7.80;99.90
54264;DHT22;40178;53.042;6.406;2023-11-21T15:42:48;7.80;99.90
54264;DHT22;40178;53.042;6.406;2023-11-21T15:45:15;7.80;99.90
54264;DHT22;40178;53.042;6.406;2023-11-21T15:47:44;7.80;99.90
54264;DHT22;40178;53.042;6.406;2023-11-21T15:50:09;7.80;99.90
54264;DHT22;40178;53.042;6.406;2023-11-21T15:52:36;7.80;99.90
54264;DHT22;40178;53.042;6.406;2023-11-21T15:55:02;7.80;99.90
54264;DHT22;40178;53.042;6.406;2023-11-21T15:57:28;7.80;99.90
54264;DHT22;40178;53.042;6.406;2023-11-21T15:59:54;7.70;99.90
54264;DHT22;40178;53.042;6.406;2023-11-21T16:02:19;7.70;99.90